createdAt,value
2019-01-21T00:00:06.372Z,-5.81
2019-01-21T00:05:06.393Z,-5.88
2019-01-21T00:10:06.301Z,-6
2019-01-21T00:15:06.399Z,-6.06
2019-01-21T00:20:06.363Z,-6.06
2019-01-21T00:25:06.403Z,-6.31
2019-01-21T00:30:06.310Z,-6.44
2019-01-21T00:35:06.398Z,-6.63
2019-01-21T00:40:06.409Z,-6.69
2019-01-21T00:45:06.359Z,-6.75
2019-01-21T00:50:06.422Z,-6.81
2019-01-21T00:55:06.358Z,-6.63
2019-01-21T01:00:06.371Z,-6.63
2019-01-21T01:05:06.370Z,-6.69
2019-01-21T01:10:06.404Z,-6.81
2019-01-21T01:15:06.435Z,-6.81
2019-01-21T01:20:06.335Z,-6.75
2019-01-21T01:25:06.343Z,-6.69
2019-01-21T01:30:06.393Z,-6.69
2019-01-21T01:35:06.345Z,-6.88
2019-01-21T01:40:06.418Z,-7
2019-01-21T01:45:06.396Z,-7.06
2019-01-21T01:50:06.393Z,-7.13
2019-01-21T01:55:06.461Z,-7.13
2019-01-21T02:00:06.399Z,-7.13
2019-01-21T02:05:06.442Z,-7.19
2019-01-21T02:10:06.458Z,-7.25
2019-01-21T02:15:06.401Z,-7.25
2019-01-21T02:20:06.431Z,-7.25
2019-01-21T02:25:06.424Z,-7.25
2019-01-21T02:30:06.473Z,-7.31
2019-01-21T02:35:06.412Z,-7.44
2019-01-21T02:40:06.454Z,-7.5
2019-01-21T02:45:06.464Z,-7.63
2019-01-21T02:50:06.384Z,-7.63
2019-01-21T02:55:06.482Z,-7.63
2019-01-21T03:00:06.426Z,-7.31
2019-01-21T03:05:06.433Z,-7.06
2019-01-21T03:10:06.434Z,-7
2019-01-21T03:15:06.484Z,-6.81
2019-01-21T03:20:06.496Z,-6.88
2019-01-21T03:25:06.397Z,-6.94
2019-01-21T03:30:06.496Z,-7.06
2019-01-21T03:35:06.454Z,-7.31
2019-01-21T03:40:06.492Z,-7.38
2019-01-21T03:45:06.483Z,-7.38
2019-01-21T03:50:06.416Z,-7.38
2019-01-21T03:55:06.494Z,-7.44
2019-01-21T04:00:06.425Z,-7.56
2019-01-21T04:05:06.612Z,-7.75
2019-01-21T04:10:06.419Z,-7.81
2019-01-21T04:15:06.506Z,-7.81
2019-01-21T04:20:06.505Z,-7.81
2019-01-21T04:25:06.467Z,-7.81
2019-01-21T04:30:06.513Z,-7.81
2019-01-21T04:35:06.530Z,-7.69
2019-01-21T04:40:06.476Z,-7.69
2019-01-21T04:45:06.485Z,-7.75
2019-01-21T04:50:06.444Z,-7.75
2019-01-21T04:55:06.544Z,-7.81
2019-01-21T05:00:06.484Z,-7.75
2019-01-21T05:05:06.447Z,-7.75
2019-01-21T05:10:06.530Z,-7.75
2019-01-21T05:15:06.490Z,-7.81
2019-01-21T05:20:06.541Z,-7.81
2019-01-21T05:25:06.506Z,-7.88
2019-01-21T05:30:06.468Z,-7.88
2019-01-21T05:35:06.507Z,-7.88
2019-01-21T05:40:06.533Z,-7.88
2019-01-21T05:45:06.504Z,-7.94
2019-01-21T05:50:06.572Z,-8
2019-01-21T05:55:06.548Z,-8.06
2019-01-21T06:00:06.510Z,-8.13
2019-01-21T06:05:06.510Z,-8.06
2019-01-21T06:10:06.536Z,-8
2019-01-21T06:15:06.517Z,-7.81
2019-01-21T06:20:06.577Z,-7.88
2019-01-21T06:25:06.540Z,-7.81
2019-01-21T06:30:06.538Z,-7.88
2019-01-21T06:35:06.583Z,-7.94
2019-01-21T06:40:06.582Z,-7.94
2019-01-21T06:45:06.541Z,-7.94
2019-01-21T06:50:06.546Z,-7.94
2019-01-21T06:55:06.502Z,-7.88
2019-01-21T07:00:06.578Z,-7.81
2019-01-21T07:05:06.587Z,-7.81
2019-01-21T07:10:06.547Z,-7.81
2019-01-21T07:15:06.575Z,-7.75
2019-01-21T07:20:06.596Z,-7.81
2019-01-21T07:25:06.612Z,-7.75
2019-01-21T07:30:06.571Z,-7.75
2019-01-21T07:35:06.525Z,-7.69
2019-01-21T07:40:06.575Z,-7.63
2019-01-21T07:45:06.532Z,-7.56
2019-01-21T07:50:06.621Z,-7.5
2019-01-21T07:55:06.561Z,-7.38
2019-01-21T08:00:06.612Z,-7.44
2019-01-21T08:05:06.626Z,-7.63
2019-01-21T08:10:06.570Z,-7.69
2019-01-21T08:15:06.624Z,-7.69
2019-01-21T08:20:06.578Z,-7.75
2019-01-21T08:25:06.585Z,-7.56
2019-01-21T08:30:06.547Z,-7.44
2019-01-21T08:35:06.619Z,-7.13
2019-01-21T08:40:06.589Z,-6.81
2019-01-21T08:45:06.639Z,-4.44
2019-01-21T08:50:06.644Z,-4.63
2019-01-21T08:55:06.630Z,-4.38
2019-01-21T09:00:06.591Z,-5
2019-01-21T09:05:06.598Z,-5.38
2019-01-21T09:10:06.571Z,-5.56
2019-01-21T09:15:06.608Z,-5.63
2019-01-21T09:20:10.585Z,-5.56
2019-01-21T09:25:06.624Z,-5.69
2019-01-21T09:30:06.669Z,-5.88
2019-01-21T09:35:06.582Z,-5.75
2019-01-21T09:40:06.627Z,-5.69
2019-01-21T09:45:06.594Z,-5.63
2019-01-21T09:50:06.627Z,-5.63
2019-01-21T09:55:06.642Z,-5.44
2019-01-21T10:00:06.683Z,-5.31
2019-01-21T10:05:06.587Z,-5.25
2019-01-21T10:10:06.634Z,-5.25
2019-01-21T10:15:06.759Z,-5.31
2019-01-21T10:20:06.632Z,-5.25
2019-01-21T10:25:06.676Z,-5.31
2019-01-21T10:30:06.720Z,-5.31
2019-01-21T10:35:06.699Z,-5.06
2019-01-21T10:40:08.054Z,-4.94
2019-01-21T10:45:06.704Z,-4.69
2019-01-21T10:50:06.700Z,-4.5
2019-01-21T10:55:06.654Z,-4.44
2019-01-21T11:00:06.707Z,-4.56
2019-01-21T11:05:06.619Z,-4.44
2019-01-21T11:10:06.712Z,-4.38
2019-01-21T11:15:06.670Z,-4.31
2019-01-21T11:20:06.664Z,-4.38
2019-01-21T11:25:06.677Z,-4.06
2019-01-21T11:30:06.706Z,-3.94
2019-01-21T11:35:06.730Z,-3.75
2019-01-21T11:40:07.666Z,-3.69
2019-01-21T11:45:06.728Z,-4
2019-01-21T11:50:10.421Z,-3.88
2019-01-21T11:55:06.727Z,-3.69
2019-01-21T12:00:06.647Z,-3.69
2019-01-21T12:05:06.731Z,-3.63
2019-01-21T12:10:06.733Z,-3.5
2019-01-21T12:15:06.683Z,-3.5
2019-01-21T12:20:06.757Z,-3.38
2019-01-21T12:25:06.690Z,-3.31
2019-01-21T12:30:06.690Z,-3.25
2019-01-21T12:35:06.756Z,-3.06
2019-01-21T12:40:06.775Z,-3.19
2019-01-21T12:45:06.727Z,-3.25
2019-01-21T12:50:06.715Z,-3.25
2019-01-21T12:55:06.709Z,-2.94
2019-01-21T13:00:06.729Z,-3
2019-01-21T13:05:06.772Z,-3.25
2019-01-21T13:10:06.716Z,-3.25
2019-01-21T13:15:06.714Z,-3.25
2019-01-21T13:20:06.731Z,-3.38
2019-01-21T13:25:06.725Z,-3.19
2019-01-21T13:30:06.729Z,-3.06
2019-01-21T13:35:06.771Z,-3.13
2019-01-21T13:40:06.731Z,-3
2019-01-21T13:45:06.776Z,-3
2019-01-21T13:50:06.736Z,-3
2019-01-21T13:55:06.748Z,-2.88
2019-01-21T14:00:06.741Z,-2.88
2019-01-21T14:05:06.793Z,-2.88
2019-01-21T14:10:06.745Z,-2.88
2019-01-21T14:15:06.765Z,-2.81
2019-01-21T14:20:06.822Z,-2.81
2019-01-21T14:25:06.816Z,-2.81
2019-01-21T14:30:06.786Z,-2.81
2019-01-21T14:35:06.813Z,-2.88
2019-01-21T14:40:06.757Z,-2.81
2019-01-21T14:45:06.819Z,-2.81
2019-01-21T14:50:06.758Z,-2.88
2019-01-21T14:55:06.767Z,-2.88
2019-01-21T15:00:06.848Z,-2.94
2019-01-21T15:05:06.922Z,-2.88
2019-01-21T15:10:06.731Z,-2.88
2019-01-21T15:15:06.861Z,-3
2019-01-21T15:20:06.804Z,-2.94
2019-01-21T15:25:06.781Z,-3
2019-01-21T15:30:06.832Z,-3.13
2019-01-21T15:35:06.784Z,-3.31
2019-01-21T15:40:06.837Z,-3.44
2019-01-21T15:45:06.838Z,-3.56
2019-01-21T15:50:06.748Z,-3.63
2019-01-21T15:55:06.795Z,-3.69
2019-01-21T16:00:06.785Z,-3.75
2019-01-21T16:05:06.841Z,-3.75
2019-01-21T16:10:06.795Z,-3.75
2019-01-21T16:15:06.795Z,-3.81
2019-01-21T16:20:06.854Z,-3.88
2019-01-21T16:25:06.806Z,-4
2019-01-21T16:30:06.779Z,-4
2019-01-21T16:35:06.825Z,-4
2019-01-21T16:40:06.863Z,-4.06
2019-01-21T16:45:06.831Z,-4.13
2019-01-21T16:50:06.818Z,-4.19
2019-01-21T16:55:06.843Z,-4.19
2019-01-21T17:00:06.917Z,-4.25
2019-01-21T17:05:06.953Z,-4.38
2019-01-21T17:10:06.821Z,-4.44
2019-01-21T17:15:06.870Z,-4.44
2019-01-21T17:20:06.850Z,-4.5
2019-01-21T17:25:06.886Z,-4.56
2019-01-21T17:30:06.835Z,-4.63
2019-01-21T17:35:06.885Z,-4.69
2019-01-21T17:40:06.899Z,-4.75
2019-01-21T17:45:06.842Z,-4.81
2019-01-21T17:50:06.893Z,-4.81
2019-01-21T17:55:06.853Z,-4.75
2019-01-21T18:00:06.853Z,-4.75
2019-01-21T18:05:06.901Z,-4.75
2019-01-21T18:10:06.900Z,-4.75
2019-01-21T18:15:06.857Z,-4.69
2019-01-21T18:20:06.910Z,-4.69
2019-01-21T18:25:06.860Z,-4.75
2019-01-21T18:30:06.913Z,-4.88
2019-01-21T18:35:06.912Z,-5
2019-01-21T18:40:06.837Z,-5
2019-01-21T18:45:06.921Z,-5
2019-01-21T18:50:06.956Z,-4.94
2019-01-21T18:55:06.853Z,-4.94
2019-01-21T19:00:06.947Z,-5
2019-01-21T19:05:06.900Z,-5.06
2019-01-21T19:10:06.884Z,-5.13
2019-01-21T19:15:06.937Z,-5.25
2019-01-21T19:20:06.897Z,-5.31
2019-01-21T19:25:06.899Z,-5.44
2019-01-21T19:30:06.904Z,-5.44
2019-01-21T19:35:07.916Z,-5.56
2019-01-21T19:40:06.895Z,-5.5
2019-01-21T19:45:06.974Z,-5.44
2019-01-21T19:50:06.952Z,-5.5
2019-01-21T19:55:06.874Z,-5.31
2019-01-21T20:00:06.967Z,-5.19
2019-01-21T20:05:06.888Z,-5
2019-01-21T20:10:07.038Z,-4.88
2019-01-21T20:15:06.927Z,-4.88
2019-01-21T20:20:06.945Z,-4.88
2019-01-21T20:25:06.968Z,-4.94
2019-01-21T20:30:06.915Z,-5
2019-01-21T20:35:06.892Z,-5.06
2019-01-21T20:40:07.093Z,-5.13
2019-01-21T20:45:06.947Z,-5.13
2019-01-21T20:50:07.011Z,-5.13
2019-01-21T20:55:06.979Z,-5.06
2019-01-21T21:00:06.895Z,-5.06
2019-01-21T21:05:06.997Z,-5
2019-01-21T21:10:06.943Z,-5.13
2019-01-21T21:15:06.947Z,-5.31
2019-01-21T21:20:07.040Z,-5.44
2019-01-21T21:25:06.976Z,-5.56
2019-01-21T21:30:06.980Z,-5.63
2019-01-21T21:35:06.977Z,-5.44
2019-01-21T21:40:06.969Z,-5.38
2019-01-21T21:45:06.929Z,-5.31
2019-01-21T21:50:07.018Z,-5.25
2019-01-21T21:55:06.964Z,-5.25
2019-01-21T22:00:07.043Z,-5.25
2019-01-21T22:05:06.974Z,-5.31
2019-01-21T22:10:06.984Z,-5.38
2019-01-21T22:15:06.974Z,-5.38
2019-01-21T22:20:06.940Z,-5.44
2019-01-21T22:25:07.013Z,-5.5
2019-01-21T22:30:07.313Z,-5.5
2019-01-21T22:35:07.004Z,-5.56
2019-01-21T22:40:06.948Z,-5.56
2019-01-21T22:45:06.987Z,-5.56
2019-01-21T22:50:06.986Z,-5.56
2019-01-21T22:55:07.006Z,-5.56
2019-01-21T23:00:07.007Z,-5.56
2019-01-21T23:05:07.049Z,-5.56
2019-01-21T23:10:07.005Z,-5.56
2019-01-21T23:15:07.043Z,-5.56
2019-01-21T23:20:07.136Z,-5.63
2019-01-21T23:25:06.978Z,-5.69
2019-01-21T23:30:07.005Z,-5.75
2019-01-21T23:35:07.026Z,-5.88
2019-01-21T23:40:07.060Z,-5.94
2019-01-21T23:45:07.056Z,-6.06
2019-01-21T23:50:07.029Z,-6
2019-01-21T23:55:07.059Z,-5.94
